sensor_id;sensor_type;location;lat;lon;timestamp;P1;durP1;ratioP1;P2;durP2;ratioP2
3541;SDS011;1785;47.388;8.538;2022-11-20T00:00:06;7.77;;;6.97;;
3541;SDS011;1785;47.388;8.538;2022-11-20T00:02:33;6.87;;;6.27;;
3541;SDS011;1785;47.388;8.538;2022-11-20T00:05:00;6.97;;;6.13;;
3541;SDS011;1785;47.388;8.538;2022-11-20T00:07:26;6.00;;;5.50;;
3541;SDS011;1785;47.388;8.538;2022-11-20T00:09:52;5.77;;;5.17;;
3541;SDS011;1785;47.388;8.538;2022-11-20T00:12:18;8.60;;;6.43;;
3541;SDS011;1785;47.388;8.538;2022-11-20T00:14:44;5.33;;;4.77;;
3541;SDS011;1785;47.388;8.538;2022-11-20T00:17:10;5.50;;;5.00;;
3541;SDS011;1785;47.388;8.538;2022-11-20T00:19:37;5.13;;;4.73;;
3541;SDS011;1785;47.388;8.538;2022-11-20T00:22:04;5.47;;;4.80;;
3541;SDS011;1785;47.388;8.538;2022-11-20T00:24:31;5.20;;;4.80;;
3541;SDS011;1785;47.388;8.538;2022-11-20T00:26:57;6.20;;;5.20;;
3541;SDS011;1785;47.388;8.538;2022-11-20T00:29:23;6.13;;;5.10;;
3541;SDS011;1785;47.388;8.538;2022-11-20T00:31:49;5.10;;;4.60;;
3541;SDS011;1785;47.388;8.538;2022-11-20T00:34:16;5.70;;;4.97;;
3541;SDS011;1785;47.388;8.538;2022-11-20T00:36:42;4.70;;;4.30;;
3541;SDS011;1785;47.388;8.538;2022-11-20T00:39:09;5.73;;;5.23;;
3541;SDS011;1785;47.388;8.538;2022-11-20T00:41:35;4.47;;;4.13;;
3541;SDS011;1785;47.388;8.538;2022-11-20T00:44:01;4.97;;;4.60;;
3541;SDS011;1785;47.388;8.538;2022-11-20T00:46:28;4.07;;;3.77;;
3541;SDS011;1785;47.388;8.538;2022-11-20T00:48:54;5.17;;;4.80;;
3541;SDS011;1785;47.388;8.538;2022-11-20T00:51:22;5.17;;;4.77;;
3541;SDS011;1785;47.388;8.538;2022-11-20T00:53:49;6.10;;;5.60;;
3541;SDS011;1785;47.388;8.538;2022-11-20T00:56:17;6.57;;;5.73;;
3541;SDS011;1785;47.388;8.538;2022-11-20T00:58:45;6.63;;;5.57;;
3541;SDS011;1785;47.388;8.538;2022-11-20T01:01:13;7.50;;;5.77;;
3541;SDS011;1785;47.388;8.538;2022-11-20T01:03:41;5.53;;;5.03;;
3541;SDS011;1785;47.388;8.538;2022-11-20T01:06:09;4.67;;;4.27;;
3541;SDS011;1785;47.388;8.538;2022-11-20T01:08:37;4.73;;;4.20;;
3541;SDS011;1785;47.388;8.538;2022-11-20T01:11:05;7.80;;;4.83;;
3541;SDS011;1785;47.388;8.538;2022-11-20T01:13:34;5.20;;;4.80;;
3541;SDS011;1785;47.388;8.538;2022-11-20T01:16:03;5.23;;;4.73;;
3541;SDS011;1785;47.388;8.538;2022-11-20T01:18:30;4.60;;;4.20;;
3541;SDS011;1785;47.388;8.538;2022-11-20T01:20:59;5.60;;;5.10;;
3541;SDS011;1785;47.388;8.538;2022-11-20T01:23:27;5.83;;;5.10;;
3541;SDS011;1785;47.388;8.538;2022-11-20T01:25:56;5.50;;;4.90;;
3541;SDS011;1785;47.388;8.538;2022-11-20T01:28:22;6.93;;;4.00;;
3541;SDS011;1785;47.388;8.538;2022-11-20T01:30:48;4.00;;;3.80;;
3541;SDS011;1785;47.388;8.538;2022-11-20T01:33:14;4.90;;;4.60;;
3541;SDS011;1785;47.388;8.538;2022-11-20T01:35:41;4.07;;;3.80;;
3541;SDS011;1785;47.388;8.538;2022-11-20T01:38:07;4.80;;;4.50;;
3541;SDS011;1785;47.388;8.538;2022-11-20T01:40:33;4.40;;;4.00;;
3541;SDS011;1785;47.388;8.538;2022-11-20T01:43:01;4.07;;;3.77;;
3541;SDS011;1785;47.388;8.538;2022-11-20T01:45:52;4.33;;;3.93;;
3541;SDS011;1785;47.388;8.538;2022-11-20T01:48:25;4.87;;;4.47;;
3541;SDS011;1785;47.388;8.538;2022-11-20T01:50:55;5.13;;;4.37;;
3541;SDS011;1785;47.388;8.538;2022-11-20T01:53:24;4.20;;;3.90;;
3541;SDS011;1785;47.388;8.538;2022-11-20T01:55:55;4.90;;;4.50;;
3541;SDS011;1785;47.388;8.538;2022-11-20T01:58:25;4.57;;;4.23;;
3541;SDS011;1785;47.388;8.538;2022-11-20T02:00:56;5.13;;;4.73;;
3541;SDS011;1785;47.388;8.538;2022-11-20T02:03:31;5.17;;;4.70;;
3541;SDS011;1785;47.388;8.538;2022-11-20T02:05:59;5.10;;;4.50;;
3541;SDS011;1785;47.388;8.538;2022-11-20T02:08:30;4.40;;;4.10;;
3541;SDS011;1785;47.388;8.538;2022-11-20T02:10:56;4.23;;;3.93;;
3541;SDS011;1785;47.388;8.538;2022-11-20T02:13:22;4.83;;;4.53;;
3541;SDS011;1785;47.388;8.538;2022-11-20T02:16:08;4.40;;;4.00;;
3541;SDS011;1785;47.388;8.538;2022-11-20T02:18:38;4.03;;;3.73;;
3541;SDS011;1785;47.388;8.538;2022-11-20T02:21:06;4.30;;;3.90;;
3541;SDS011;1785;47.388;8.538;2022-11-20T02:23:38;5.03;;;3.77;;
3541;SDS011;1785;47.388;8.538;2022-11-20T02:26:09;5.70;;;4.77;;
3541;SDS011;1785;47.388;8.538;2022-11-20T02:28:38;5.70;;;4.97;;
3541;SDS011;1785;47.388;8.538;2022-11-20T02:31:08;5.60;;;5.10;;
3541;SDS011;1785;47.388;8.538;2022-11-20T02:33:34;6.60;;;5.27;;
3541;SDS011;1785;47.388;8.538;2022-11-20T02:36:00;4.33;;;4.03;;
3541;SDS011;1785;47.388;8.538;2022-11-20T02:38:26;5.70;;;5.20;;
3541;SDS011;1785;47.388;8.538;2022-11-20T02:40:53;5.23;;;4.83;;
3541;SDS011;1785;47.388;8.538;2022-11-20T02:43:20;4.33;;;4.07;;
3541;SDS011;1785;47.388;8.538;2022-11-20T02:45:46;4.87;;;4.23;;
3541;SDS011;1785;47.388;8.538;2022-11-20T02:48:13;4.17;;;3.87;;
3541;SDS011;1785;47.388;8.538;2022-11-20T02:50:39;5.20;;;4.80;;
3541;SDS011;1785;47.388;8.538;2022-11-20T02:53:05;4.67;;;4.37;;
3541;SDS011;1785;47.388;8.538;2022-11-20T02:55:32;4.53;;;4.13;;
3541;SDS011;1785;47.388;8.538;2022-11-20T02:57:59;4.33;;;3.93;;
3541;SDS011;1785;47.388;8.538;2022-11-20T03:00:26;3.93;;;3.60;;
3541;SDS011;1785;47.388;8.538;2022-11-20T03:02:52;4.50;;;4.17;;
3541;SDS011;1785;47.388;8.538;2022-11-20T03:05:18;4.53;;;4.23;;
3541;SDS011;1785;47.388;8.538;2022-11-20T03:07:44;4.70;;;4.30;;
3541;SDS011;1785;47.388;8.538;2022-11-20T03:10:11;3.83;;;3.53;;
3541;SDS011;1785;47.388;8.538;2022-11-20T03:12:37;3.77;;;3.53;;
3541;SDS011;1785;47.388;8.538;2022-11-20T03:15:04;5.73;;;3.73;;
3541;SDS011;1785;47.388;8.538;2022-11-20T03:17:31;3.57;;;3.27;;
3541;SDS011;1785;47.388;8.538;2022-11-20T03:19:57;4.00;;;3.70;;
3541;SDS011;1785;47.388;8.538;2022-11-20T03:22:24;3.00;;;2.80;;
3541;SDS011;1785;47.388;8.538;2022-11-20T03:24:50;3.73;;;3.40;;
3541;SDS011;1785;47.388;8.538;2022-11-20T03:27:17;3.50;;;3.10;;
3541;SDS011;1785;47.388;8.538;2022-11-20T03:29:43;3.67;;;3.30;;
3541;SDS011;1785;47.388;8.538;2022-11-20T03:32:09;4.23;;;3.90;;
3541;SDS011;1785;47.388;8.538;2022-11-20T03:34:36;3.87;;;3.40;;
3541;SDS011;1785;47.388;8.538;2022-11-20T03:37:03;5.73;;;4.20;;
3541;SDS011;1785;47.388;8.538;2022-11-20T03:39:29;3.87;;;3.67;;
3541;SDS011;1785;47.388;8.538;2022-11-20T03:41:55;4.17;;;3.87;;
3541;SDS011;1785;47.388;8.538;2022-11-20T03:44:22;5.57;;;3.60;;
3541;SDS011;1785;47.388;8.538;2022-11-20T03:46:48;3.80;;;3.60;;
3541;SDS011;1785;47.388;8.538;2022-11-20T03:49:14;3.60;;;3.40;;
3541;SDS011;1785;47.388;8.538;2022-11-20T03:51:41;3.90;;;3.70;;
3541;SDS011;1785;47.388;8.538;2022-11-20T03:54:07;3.80;;;3.60;;
3541;SDS011;1785;47.388;8.538;2022-11-20T03:56:35;4.40;;;4.03;;
3541;SDS011;1785;47.388;8.538;2022-11-20T03:59:02;5.40;;;4.90;;
3541;SDS011;1785;47.388;8.538;2022-11-20T04:01:30;4.80;;;4.40;;
3541;SDS011;1785;47.388;8.538;2022-11-20T04:03:58;3.80;;;3.50;;
3541;SDS011;1785;47.388;8.538;2022-11-20T04:06:24;4.23;;;3.93;;
3541;SDS011;1785;47.388;8.538;2022-11-20T04:08:54;4.50;;;4.10;;
3541;SDS011;1785;47.388;8.538;2022-11-20T04:11:21;3.90;;;3.47;;
3541;SDS011;1785;47.388;8.538;2022-11-20T04:13:49;4.30;;;4.00;;
3541;SDS011;1785;47.388;8.538;2022-11-20T04:16:17;4.70;;;4.40;;
3541;SDS011;1785;47.388;8.538;2022-11-20T04:18:44;4.57;;;4.17;;
3541;SDS011;1785;47.388;8.538;2022-11-20T04:21:11;4.60;;;4.20;;
3541;SDS011;1785;47.388;8.538;2022-11-20T04:23:38;4.53;;;4.07;;
3541;SDS011;1785;47.388;8.538;2022-11-20T04:26:05;4.73;;;3.80;;
3541;SDS011;1785;47.388;8.538;2022-11-20T04:28:33;4.07;;;3.77;;
3541;SDS011;1785;47.388;8.538;2022-11-20T04:31:03;4.77;;;3.80;;
3541;SDS011;1785;47.388;8.538;2022-11-20T04:33:30;4.00;;;3.70;;
3541;SDS011;1785;47.388;8.538;2022-11-20T04:35:59;5.80;;;3.50;;
3541;SDS011;1785;47.388;8.538;2022-11-20T04:38:27;4.27;;;3.97;;
3541;SDS011;1785;47.388;8.538;2022-11-20T04:40:55;4.10;;;3.80;;
3541;SDS011;1785;47.388;8.538;2022-11-20T04:43:23;4.10;;;3.70;;
3541;SDS011;1785;47.388;8.538;2022-11-20T04:45:50;4.00;;;3.60;;
3541;SDS011;1785;47.388;8.538;2022-11-20T04:48:16;4.17;;;3.97;;
3541;SDS011;1785;47.388;8.538;2022-11-20T04:50:43;3.90;;;3.70;;
3541;SDS011;1785;47.388;8.538;2022-11-20T04:53:09;3.13;;;2.93;;
3541;SDS011;1785;47.388;8.538;2022-11-20T04:55:35;3.60;;;3.40;;
3541;SDS011;1785;47.388;8.538;2022-11-20T04:58:01;5.70;;;3.73;;
3541;SDS011;1785;47.388;8.538;2022-11-20T05:00:28;3.93;;;3.63;;
3541;SDS011;1785;47.388;8.538;2022-11-20T05:02:55;5.60;;;3.80;;
3541;SDS011;1785;47.388;8.538;2022-11-20T05:05:21;3.90;;;3.60;;
3541;SDS011;1785;47.388;8.538;2022-11-20T05:07:47;4.07;;;3.57;;
3541;SDS011;1785;47.388;8.538;2022-11-20T05:10:14;3.10;;;2.90;;
3541;SDS011;1785;47.388;8.538;2022-11-20T05:12:40;3.70;;;3.40;;
3541;SDS011;1785;47.388;8.538;2022-11-20T05:15:07;3.80;;;3.40;;
3541;SDS011;1785;47.388;8.538;2022-11-20T05:17:34;3.17;;;3.07;;
3541;SDS011;1785;47.388;8.538;2022-11-20T05:20:00;3.40;;;3.20;;
3541;SDS011;1785;47.388;8.538;2022-11-20T05:22:26;5.10;;;2.97;;
3541;SDS011;1785;47.388;8.538;2022-11-20T05:24:52;4.23;;;3.93;;
3541;SDS011;1785;47.388;8.538;2022-11-20T05:27:19;4.13;;;3.83;;
3541;SDS011;1785;47.388;8.538;2022-11-20T05:29:46;3.17;;;2.97;;
3541;SDS011;1785;47.388;8.538;2022-11-20T05:32:12;3.53;;;3.33;;
3541;SDS011;1785;47.388;8.538;2022-11-20T05:34:39;3.70;;;3.40;;
3541;SDS011;1785;47.388;8.538;2022-11-20T05:37:05;3.13;;;2.37;;
3541;SDS011;1785;47.388;8.538;2022-11-20T05:39:31;3.80;;;3.50;;
3541;SDS011;1785;47.388;8.538;2022-11-20T05:41:57;4.17;;;3.87;;
3541;SDS011;1785;47.388;8.538;2022-11-20T05:44:38;4.37;;;4.07;;
3541;SDS011;1785;47.388;8.538;2022-11-20T05:47:04;3.73;;;3.53;;
3541;SDS011;1785;47.388;8.538;2022-11-20T05:49:31;3.47;;;3.17;;
3541;SDS011;1785;47.388;8.538;2022-11-20T05:51:58;4.50;;;4.20;;
3541;SDS011;1785;47.388;8.538;2022-11-20T05:54:24;4.60;;;3.50;;
3541;SDS011;1785;47.388;8.538;2022-11-20T05:56:50;3.70;;;3.40;;
3541;SDS011;1785;47.388;8.538;2022-11-20T05:59:16;4.27;;;3.67;;
3541;SDS011;1785;47.388;8.538;2022-11-20T06:01:49;4.20;;;3.80;;
3541;SDS011;1785;47.388;8.538;2022-11-20T06:04:15;3.40;;;3.20;;
3541;SDS011;1785;47.388;8.538;2022-11-20T06:06:41;4.10;;;3.80;;
3541;SDS011;1785;47.388;8.538;2022-11-20T06:09:08;6.07;;;3.70;;
3541;SDS011;1785;47.388;8.538;2022-11-20T06:11:34;4.20;;;3.90;;
3541;SDS011;1785;47.388;8.538;2022-11-20T06:14:00;3.47;;;3.27;;
3541;SDS011;1785;47.388;8.538;2022-11-20T06:16:26;3.50;;;3.30;;
3541;SDS011;1785;47.388;8.538;2022-11-20T06:18:53;5.23;;;4.23;;
3541;SDS011;1785;47.388;8.538;2022-11-20T06:21:19;4.53;;;4.23;;
3541;SDS011;1785;47.388;8.538;2022-11-20T06:23:47;3.70;;;3.40;;
3541;SDS011;1785;47.388;8.538;2022-11-20T06:26:15;8.33;;;3.57;;
3541;SDS011;1785;47.388;8.538;2022-11-20T06:28:42;3.83;;;3.20;;
3541;SDS011;1785;47.388;8.538;2022-11-20T06:31:10;3.80;;;3.50;;
3541;SDS011;1785;47.388;8.538;2022-11-20T06:33:37;3.77;;;3.47;;
3541;SDS011;1785;47.388;8.538;2022-11-20T06:36:03;4.30;;;3.70;;
3541;SDS011;1785;47.388;8.538;2022-11-20T06:38:30;4.07;;;3.87;;
3541;SDS011;1785;47.388;8.538;2022-11-20T06:40:56;4.37;;;4.00;;
3541;SDS011;1785;47.388;8.538;2022-11-20T06:43:23;3.87;;;3.50;;
3541;SDS011;1785;47.388;8.538;2022-11-20T06:45:51;4.10;;;3.80;;
3541;SDS011;1785;47.388;8.538;2022-11-20T06:48:18;4.30;;;4.00;;
3541;SDS011;1785;47.388;8.538;2022-11-20T06:50:44;3.93;;;3.53;;
3541;SDS011;1785;47.388;8.538;2022-11-20T06:53:10;4.30;;;3.90;;
3541;SDS011;1785;47.388;8.538;2022-11-20T06:55:36;4.30;;;4.00;;
3541;SDS011;1785;47.388;8.538;2022-11-20T06:58:07;4.27;;;3.93;;
3541;SDS011;1785;47.388;8.538;2022-11-20T07:00:33;3.97;;;3.67;;
3541;SDS011;1785;47.388;8.538;2022-11-20T07:03:02;4.17;;;3.87;;
3541;SDS011;1785;47.388;8.538;2022-11-20T07:05:28;3.50;;;3.30;;
3541;SDS011;1785;47.388;8.538;2022-11-20T07:07:55;5.43;;;3.73;;
3541;SDS011;1785;47.388;8.538;2022-11-20T07:10:21;3.93;;;3.63;;
3541;SDS011;1785;47.388;8.538;2022-11-20T07:12:49;3.57;;;3.37;;
3541;SDS011;1785;47.388;8.538;2022-11-20T07:15:15;3.63;;;3.33;;
3541;SDS011;1785;47.388;8.538;2022-11-20T07:17:42;5.30;;;3.87;;
3541;SDS011;1785;47.388;8.538;2022-11-20T07:20:09;4.17;;;3.87;;
3541;SDS011;1785;47.388;8.538;2022-11-20T07:22:35;4.83;;;4.40;;
3541;SDS011;1785;47.388;8.538;2022-11-20T07:25:02;4.30;;;4.00;;
3541;SDS011;1785;47.388;8.538;2022-11-20T07:27:29;4.50;;;4.20;;
3541;SDS011;1785;47.388;8.538;2022-11-20T07:29:55;3.80;;;3.50;;
3541;SDS011;1785;47.388;8.538;2022-11-20T07:32:21;4.60;;;4.20;;
3541;SDS011;1785;47.388;8.538;2022-11-20T07:34:49;3.80;;;3.50;;
3541;SDS011;1785;47.388;8.538;2022-11-20T07:37:15;4.40;;;3.73;;
3541;SDS011;1785;47.388;8.538;2022-11-20T07:39:41;4.90;;;4.40;;
3541;SDS011;1785;47.388;8.538;2022-11-20T07:42:07;4.37;;;4.07;;
3541;SDS011;1785;47.388;8.538;2022-11-20T07:44:34;5.40;;;4.10;;
3541;SDS011;1785;47.388;8.538;2022-11-20T07:47:01;3.97;;;3.73;;
3541;SDS011;1785;47.388;8.538;2022-11-20T07:49:27;5.40;;;3.60;;
3541;SDS011;1785;47.388;8.538;2022-11-20T07:51:54;3.83;;;3.40;;
3541;SDS011;1785;47.388;8.538;2022-11-20T07:54:20;3.83;;;3.53;;
3541;SDS011;1785;47.388;8.538;2022-11-20T07:56:46;4.73;;;3.83;;
3541;SDS011;1785;47.388;8.538;2022-11-20T07:59:13;5.50;;;4.37;;
3541;SDS011;1785;47.388;8.538;2022-11-20T08:01:39;3.47;;;3.27;;
3541;SDS011;1785;47.388;8.538;2022-11-20T08:04:06;3.70;;;3.50;;
3541;SDS011;1785;47.388;8.538;2022-11-20T08:06:32;4.37;;;3.97;;
3541;SDS011;1785;47.388;8.538;2022-11-20T08:08:59;3.40;;;3.30;;
3541;SDS011;1785;47.388;8.538;2022-11-20T08:11:25;3.83;;;3.63;;
3541;SDS011;1785;47.388;8.538;2022-11-20T08:14:09;3.70;;;3.50;;
3541;SDS011;1785;47.388;8.538;2022-11-20T08:16:38;3.73;;;3.53;;
3541;SDS011;1785;47.388;8.538;2022-11-20T08:19:05;6.37;;;3.37;;
3541;SDS011;1785;47.388;8.538;2022-11-20T08:21:31;3.40;;;3.20;;
3541;SDS011;1785;47.388;8.538;2022-11-20T08:23:59;3.57;;;3.40;;
3541;SDS011;1785;47.388;8.538;2022-11-20T08:26:25;3.30;;;3.17;;
3541;SDS011;1785;47.388;8.538;2022-11-20T08:28:52;3.87;;;3.57;;
3541;SDS011;1785;47.388;8.538;2022-11-20T08:31:19;3.87;;;3.13;;
3541;SDS011;1785;47.388;8.538;2022-11-20T08:33:45;4.33;;;3.37;;
3541;SDS011;1785;47.388;8.538;2022-11-20T08:36:12;3.53;;;3.30;;
3541;SDS011;1785;47.388;8.538;2022-11-20T08:38:38;3.27;;;3.07;;
3541;SDS011;1785;47.388;8.538;2022-11-20T08:41:05;4.60;;;3.70;;
3541;SDS011;1785;47.388;8.538;2022-11-20T08:43:51;3.10;;;2.90;;
3541;SDS011;1785;47.388;8.538;2022-11-20T08:46:18;3.50;;;3.20;;
3541;SDS011;1785;47.388;8.538;2022-11-20T08:48:44;3.27;;;2.97;;
3541;SDS011;1785;47.388;8.538;2022-11-20T08:51:11;3.03;;;2.83;;
3541;SDS011;1785;47.388;8.538;2022-11-20T08:53:38;2.80;;;2.70;;
3541;SDS011;1785;47.388;8.538;2022-11-20T08:56:05;3.53;;;3.23;;
3541;SDS011;1785;47.388;8.538;2022-11-20T08:58:32;2.83;;;2.73;;
3541;SDS011;1785;47.388;8.538;2022-11-20T09:00:58;3.27;;;3.07;;
3541;SDS011;1785;47.388;8.538;2022-11-20T09:03:25;3.80;;;2.80;;
3541;SDS011;1785;47.388;8.538;2022-11-20T09:05:56;2.93;;;2.73;;
3541;SDS011;1785;47.388;8.538;2022-11-20T09:08:23;2.90;;;2.70;;
3541;SDS011;1785;47.388;8.538;2022-11-20T09:10:50;2.90;;;2.80;;
3541;SDS011;1785;47.388;8.538;2022-11-20T09:13:18;2.70;;;2.50;;
3541;SDS011;1785;47.388;8.538;2022-11-20T09:15:44;2.87;;;2.70;;
3541;SDS011;1785;47.388;8.538;2022-11-20T09:18:10;3.37;;;2.57;;
3541;SDS011;1785;47.388;8.538;2022-11-20T09:20:36;3.40;;;3.10;;
3541;SDS011;1785;47.388;8.538;2022-11-20T09:23:02;2.73;;;2.53;;
3541;SDS011;1785;47.388;8.538;2022-11-20T09:25:29;2.53;;;2.43;;
3541;SDS011;1785;47.388;8.538;2022-11-20T09:27:55;2.20;;;2.10;;
3541;SDS011;1785;47.388;8.538;2022-11-20T09:30:22;2.33;;;2.23;;
3541;SDS011;1785;47.388;8.538;2022-11-20T09:32:48;2.70;;;2.60;;
3541;SDS011;1785;47.388;8.538;2022-11-20T09:35:15;2.80;;;2.60;;
3541;SDS011;1785;47.388;8.538;2022-11-20T09:37:42;3.10;;;2.80;;
3541;SDS011;1785;47.388;8.538;2022-11-20T09:40:09;2.77;;;2.67;;
3541;SDS011;1785;47.388;8.538;2022-11-20T09:42:46;3.20;;;3.00;;
3541;SDS011;1785;47.388;8.538;2022-11-20T09:45:22;2.90;;;2.70;;
3541;SDS011;1785;47.388;8.538;2022-11-20T09:48:00;3.23;;;3.03;;
3541;SDS011;1785;47.388;8.538;2022-11-20T09:50:43;3.00;;;2.70;;
3541;SDS011;1785;47.388;8.538;2022-11-20T09:53:16;2.83;;;2.73;;
3541;SDS011;1785;47.388;8.538;2022-11-20T09:55:49;3.70;;;3.13;;
3541;SDS011;1785;47.388;8.538;2022-11-20T09:58:19;3.37;;;3.27;;
3541;SDS011;1785;47.388;8.538;2022-11-20T10:00:55;3.00;;;2.80;;
3541;SDS011;1785;47.388;8.538;2022-11-20T10:03:29;2.87;;;2.70;;
3541;SDS011;1785;47.388;8.538;2022-11-20T10:06:02;2.93;;;2.80;;
3541;SDS011;1785;47.388;8.538;2022-11-20T10:08:35;3.30;;;2.90;;
3541;SDS011;1785;47.388;8.538;2022-11-20T10:11:08;3.17;;;2.97;;
3541;SDS011;1785;47.388;8.538;2022-11-20T10:13:45;3.17;;;2.97;;
3541;SDS011;1785;47.388;8.538;2022-11-20T10:16:24;3.30;;;3.10;;
3541;SDS011;1785;47.388;8.538;2022-11-20T10:19:01;2.83;;;2.70;;
3541;SDS011;1785;47.388;8.538;2022-11-20T10:21:41;3.40;;;3.10;;
3541;SDS011;1785;47.388;8.538;2022-11-20T10:24:24;3.10;;;2.90;;
3541;SDS011;1785;47.388;8.538;2022-11-20T10:27:30;2.97;;;2.77;;
3541;SDS011;1785;47.388;8.538;2022-11-20T10:30:15;3.03;;;2.83;;
3541;SDS011;1785;47.388;8.538;2022-11-20T10:32:46;3.07;;;2.77;;
3541;SDS011;1785;47.388;8.538;2022-11-20T10:35:18;4.10;;;3.80;;
3541;SDS011;1785;47.388;8.538;2022-11-20T10:37:48;2.93;;;2.73;;
3541;SDS011;1785;47.388;8.538;2022-11-20T10:40:20;2.93;;;2.73;;
3541;SDS011;1785;47.388;8.538;2022-11-20T10:42:54;2.90;;;2.70;;
3541;SDS011;1785;47.388;8.538;2022-11-20T10:45:29;2.70;;;2.50;;
3541;SDS011;1785;47.388;8.538;2022-11-20T10:48:07;2.80;;;2.60;;
3541;SDS011;1785;47.388;8.538;2022-11-20T10:50:40;2.73;;;2.57;;
3541;SDS011;1785;47.388;8.538;2022-11-20T10:53:20;2.67;;;2.47;;
3541;SDS011;1785;47.388;8.538;2022-11-20T10:56:00;3.20;;;3.00;;
3541;SDS011;1785;47.388;8.538;2022-11-20T10:58:34;2.60;;;2.50;;
3541;SDS011;1785;47.388;8.538;2022-11-20T11:01:13;2.53;;;2.37;;
3541;SDS011;1785;47.388;8.538;2022-11-20T11:03:41;3.03;;;2.73;;
3541;SDS011;1785;47.388;8.538;2022-11-20T11:06:10;3.30;;;3.10;;
3541;SDS011;1785;47.388;8.538;2022-11-20T11:08:42;2.57;;;2.37;;
3541;SDS011;1785;47.388;8.538;2022-11-20T11:11:15;2.20;;;2.00;;
3541;SDS011;1785;47.388;8.538;2022-11-20T11:13:46;2.53;;;2.33;;
3541;SDS011;1785;47.388;8.538;2022-11-20T11:16:16;2.60;;;2.50;;
3541;SDS011;1785;47.388;8.538;2022-11-20T11:18:47;2.40;;;2.30;;
3541;SDS011;1785;47.388;8.538;2022-11-20T11:21:13;2.47;;;2.30;;
3541;SDS011;1785;47.388;8.538;2022-11-20T11:23:48;2.43;;;2.33;;
3541;SDS011;1785;47.388;8.538;2022-11-20T11:26:24;2.00;;;1.90;;
3541;SDS011;1785;47.388;8.538;2022-11-20T11:28:55;2.63;;;2.43;;
3541;SDS011;1785;47.388;8.538;2022-11-20T11:31:23;2.70;;;2.50;;
3541;SDS011;1785;47.388;8.538;2022-11-20T11:33:51;3.10;;;2.43;;
3541;SDS011;1785;47.388;8.538;2022-11-20T11:36:18;2.20;;;2.10;;
3541;SDS011;1785;47.388;8.538;2022-11-20T11:38:48;1.17;;;1.05;;
3541;SDS011;1785;47.388;8.538;2022-11-20T11:41:18;2.20;;;2.10;;
3541;SDS011;1785;47.388;8.538;2022-11-20T11:43:49;2.30;;;2.20;;
3541;SDS011;1785;47.388;8.538;2022-11-20T11:46:36;2.10;;;2.00;;
3541;SDS011;1785;47.388;8.538;2022-11-20T11:49:13;2.73;;;2.63;;
3541;SDS011;1785;47.388;8.538;2022-11-20T11:51:45;2.23;;;2.13;;
3541;SDS011;1785;47.388;8.538;2022-11-20T11:54:23;2.13;;;2.00;;
3541;SDS011;1785;47.388;8.538;2022-11-20T11:56:50;2.10;;;2.00;;
3541;SDS011;1785;47.388;8.538;2022-11-20T11:59:22;2.10;;;2.00;;
3541;SDS011;1785;47.388;8.538;2022-11-20T12:01:55;2.43;;;2.23;;
3541;SDS011;1785;47.388;8.538;2022-11-20T12:04:35;2.30;;;2.20;;
3541;SDS011;1785;47.388;8.538;2022-11-20T12:07:10;2.00;;;1.90;;
3541;SDS011;1785;47.388;8.538;2022-11-20T12:09:41;2.90;;;2.70;;
3541;SDS011;1785;47.388;8.538;2022-11-20T12:12:15;2.50;;;2.40;;
3541;SDS011;1785;47.388;8.538;2022-11-20T12:14:46;5.00;;;2.03;;
3541;SDS011;1785;47.388;8.538;2022-11-20T12:17:15;3.27;;;2.97;;
3541;SDS011;1785;47.388;8.538;2022-11-20T12:19:43;2.57;;;2.37;;
3541;SDS011;1785;47.388;8.538;2022-11-20T12:22:12;2.20;;;2.10;;
3541;SDS011;1785;47.388;8.538;2022-11-20T12:24:50;3.17;;;2.90;;
3541;SDS011;1785;47.388;8.538;2022-11-20T12:30:28;3.60;;;3.00;;
3541;SDS011;1785;47.388;8.538;2022-11-20T12:33:04;3.17;;;2.97;;
3541;SDS011;1785;47.388;8.538;2022-11-20T12:35:56;2.77;;;2.57;;
3541;SDS011;1785;47.388;8.538;2022-11-20T12:38:37;3.60;;;3.30;;
3541;SDS011;1785;47.388;8.538;2022-11-20T12:41:19;3.13;;;2.93;;
3541;SDS011;1785;47.388;8.538;2022-11-20T12:44:16;2.67;;;2.57;;
3541;SDS011;1785;47.388;8.538;2022-11-20T12:47:16;2.33;;;2.23;;
3541;SDS011;1785;47.388;8.538;2022-11-20T12:49:48;2.50;;;2.40;;
3541;SDS011;1785;47.388;8.538;2022-11-20T12:52:26;2.30;;;2.20;;
3541;SDS011;1785;47.388;8.538;2022-11-20T12:55:16;2.77;;;2.53;;
3541;SDS011;1785;47.388;8.538;2022-11-20T12:57:50;2.70;;;2.50;;
3541;SDS011;1785;47.388;8.538;2022-11-20T13:00:20;2.80;;;2.60;;
3541;SDS011;1785;47.388;8.538;2022-11-20T13:03:00;2.90;;;2.70;;
3541;SDS011;1785;47.388;8.538;2022-11-20T13:05:47;2.93;;;2.70;;
3541;SDS011;1785;47.388;8.538;2022-11-20T13:08:22;2.53;;;2.33;;
3541;SDS011;1785;47.388;8.538;2022-11-20T13:10:51;2.40;;;2.30;;
3541;SDS011;1785;47.388;8.538;2022-11-20T13:13:29;3.87;;;2.73;;
3541;SDS011;1785;47.388;8.538;2022-11-20T13:16:02;3.10;;;2.90;;
3541;SDS011;1785;47.388;8.538;2022-11-20T13:18:35;3.10;;;2.93;;
3541;SDS011;1785;47.388;8.538;2022-11-20T13:21:13;3.20;;;2.47;;
3541;SDS011;1785;47.388;8.538;2022-11-20T13:23:44;3.27;;;2.40;;
3541;SDS011;1785;47.388;8.538;2022-11-20T13:26:15;2.13;;;2.00;;
3541;SDS011;1785;47.388;8.538;2022-11-20T13:28:45;2.83;;;2.63;;
3541;SDS011;1785;47.388;8.538;2022-11-20T13:31:23;2.90;;;2.70;;
3541;SDS011;1785;47.388;8.538;2022-11-20T13:33:56;2.93;;;2.70;;
3541;SDS011;1785;47.388;8.538;2022-11-20T13:36:26;2.40;;;2.30;;
3541;SDS011;1785;47.388;8.538;2022-11-20T13:38:58;2.33;;;2.13;;
3541;SDS011;1785;47.388;8.538;2022-11-20T13:41:25;3.17;;;2.17;;
3541;SDS011;1785;47.388;8.538;2022-11-20T13:43:58;2.63;;;2.40;;
3541;SDS011;1785;47.388;8.538;2022-11-20T13:46:35;2.10;;;2.00;;
3541;SDS011;1785;47.388;8.538;2022-11-20T13:49:16;4.80;;;2.27;;
3541;SDS011;1785;47.388;8.538;2022-11-20T13:51:47;2.23;;;2.13;;
3541;SDS011;1785;47.388;8.538;2022-11-20T13:57:43;2.30;;;2.10;;
3541;SDS011;1785;47.388;8.538;2022-11-20T14:00:30;2.27;;;2.07;;
3541;SDS011;1785;47.388;8.538;2022-11-20T14:03:01;2.40;;;2.23;;
3541;SDS011;1785;47.388;8.538;2022-11-20T14:05:38;1.97;;;1.80;;
3541;SDS011;1785;47.388;8.538;2022-11-20T14:08:14;3.57;;;1.90;;
3541;SDS011;1785;47.388;8.538;2022-11-20T14:10:49;3.37;;;1.67;;
3541;SDS011;1785;47.388;8.538;2022-11-20T14:13:15;1.90;;;1.80;;
3541;SDS011;1785;47.388;8.538;2022-11-20T14:15:44;2.27;;;2.13;;
3541;SDS011;1785;47.388;8.538;2022-11-20T14:18:11;1.70;;;1.60;;
3541;SDS011;1785;47.388;8.538;2022-11-20T14:20:39;1.70;;;1.60;;
3541;SDS011;1785;47.388;8.538;2022-11-20T14:23:07;2.00;;;1.90;;
3541;SDS011;1785;47.388;8.538;2022-11-20T14:25:36;2.00;;;1.90;;
3541;SDS011;1785;47.388;8.538;2022-11-20T14:28:11;1.73;;;1.63;;
3541;SDS011;1785;47.388;8.538;2022-11-20T14:30:46;2.17;;;1.97;;
3541;SDS011;1785;47.388;8.538;2022-11-20T14:33:13;2.13;;;2.03;;
3541;SDS011;1785;47.388;8.538;2022-11-20T14:35:43;2.20;;;2.10;;
3541;SDS011;1785;47.388;8.538;2022-11-20T14:38:11;2.17;;;2.07;;
3541;SDS011;1785;47.388;8.538;2022-11-20T14:40:39;1.50;;;1.40;;
3541;SDS011;1785;47.388;8.538;2022-11-20T14:43:16;1.73;;;1.63;;
3541;SDS011;1785;47.388;8.538;2022-11-20T14:45:45;1.80;;;1.70;;
3541;SDS011;1785;47.388;8.538;2022-11-20T14:48:14;2.93;;;2.00;;
3541;SDS011;1785;47.388;8.538;2022-11-20T14:50:41;2.07;;;1.97;;
3541;SDS011;1785;47.388;8.538;2022-11-20T14:53:08;1.80;;;1.70;;
3541;SDS011;1785;47.388;8.538;2022-11-20T14:55:35;2.30;;;2.10;;
3541;SDS011;1785;47.388;8.538;2022-11-20T14:58:03;1.70;;;1.60;;
3541;SDS011;1785;47.388;8.538;2022-11-20T15:00:32;2.20;;;2.10;;
3541;SDS011;1785;47.388;8.538;2022-11-20T15:02:59;2.57;;;2.37;;
3541;SDS011;1785;47.388;8.538;2022-11-20T15:05:36;2.43;;;2.33;;
3541;SDS011;1785;47.388;8.538;2022-11-20T15:08:10;1.70;;;1.60;;
3541;SDS011;1785;47.388;8.538;2022-11-20T15:10:38;1.77;;;1.67;;
3541;SDS011;1785;47.388;8.538;2022-11-20T15:13:10;1.50;;;1.40;;
3541;SDS011;1785;47.388;8.538;2022-11-20T15:15:41;1.90;;;1.80;;
3541;SDS011;1785;47.388;8.538;2022-11-20T15:18:11;2.27;;;2.07;;
3541;SDS011;1785;47.388;8.538;2022-11-20T15:20:40;1.70;;;1.60;;
3541;SDS011;1785;47.388;8.538;2022-11-20T15:23:09;1.60;;;1.50;;
3541;SDS011;1785;47.388;8.538;2022-11-20T15:25:37;2.23;;;2.13;;
3541;SDS011;1785;47.388;8.538;2022-11-20T15:28:04;2.50;;;2.30;;
3541;SDS011;1785;47.388;8.538;2022-11-20T15:30:42;2.40;;;2.30;;
3541;SDS011;1785;47.388;8.538;2022-11-20T15:33:09;2.00;;;1.90;;
3541;SDS011;1785;47.388;8.538;2022-11-20T15:35:35;2.03;;;1.90;;